createdAt,value
2022-11-25T00:01:28.831Z,9.75
2022-11-25T00:03:57.790Z,8.82
2022-11-25T00:06:30.581Z,9.13
2022-11-25T00:09:00.511Z,8.50
2022-11-25T00:11:28.030Z,8.73
2022-11-25T00:13:56.207Z,9.23
2022-11-25T00:16:24.683Z,9.80
2022-11-25T00:18:53.563Z,8.93
2022-11-25T00:21:23.257Z,9.63
2022-11-25T00:23:55.974Z,9.02
2022-11-25T00:26:24.521Z,9.15
2022-11-25T00:28:52.603Z,7.95
2022-11-25T00:31:23.564Z,9.02
2022-11-25T00:33:51.660Z,9.43
2022-11-25T00:36:24.650Z,8.73
2022-11-25T00:38:56.742Z,9.38
2022-11-25T00:41:44.126Z,8.90
2022-11-25T00:44:33.665Z,8.45
2022-11-25T00:47:01.559Z,8.43
2022-11-25T00:49:29.018Z,8.18
2022-11-25T00:51:56.360Z,8.10
2022-11-25T00:54:23.652Z,8.52
2022-11-25T00:56:51.406Z,7.53
2022-11-25T00:59:19.186Z,8.68
2022-11-25T01:01:46.375Z,8.88
2022-11-25T01:04:13.698Z,8.60
2022-11-25T01:06:40.806Z,8.88
2022-11-25T01:09:09.227Z,8.82
2022-11-25T01:11:36.341Z,8.85
2022-11-25T01:14:03.698Z,8.65
2022-11-25T01:16:31.259Z,8.05
2022-11-25T01:19:00.335Z,8.93
2022-11-25T01:21:30.155Z,8.27
2022-11-25T01:23:58.685Z,8.23
2022-11-25T01:26:26.600Z,8.25
2022-11-25T01:28:56.164Z,7.70
2022-11-25T01:31:25.405Z,7.27
2022-11-25T01:33:58.504Z,8.18
2022-11-25T01:36:25.687Z,7.95
2022-11-25T01:38:55.070Z,7.72
2022-11-25T01:41:23.621Z,8.10
2022-11-25T01:44:12.529Z,7.70
2022-11-25T01:47:15.944Z,7.72
2022-11-25T01:49:50.680Z,7.10
2022-11-25T01:52:34.294Z,8.27
2022-11-25T01:55:06.937Z,7.43
2022-11-25T01:57:48.973Z,7.65
2022-11-25T02:00:16.905Z,8.02
2022-11-25T02:02:44.338Z,7.78
2022-11-25T02:05:15.424Z,7.63
2022-11-25T02:07:45.881Z,7.18
2022-11-25T02:12:46.993Z,6.70
2022-11-25T02:15:15.529Z,7.35
2022-11-25T02:17:44.155Z,7.07
2022-11-25T02:20:15.370Z,6.90
2022-11-25T02:23:07.567Z,7.30
2022-11-25T02:25:40.700Z,7.13
2022-11-25T02:28:17.954Z,6.50
2022-11-25T02:30:46.321Z,7.18
2022-11-25T02:33:14.497Z,7.00
2022-11-25T02:35:44.047Z,7.80
2022-11-25T02:38:20.665Z,6.80
2022-11-25T02:41:01.676Z,6.70
2022-11-25T02:43:28.864Z,7.45
2022-11-25T02:46:02.400Z,6.45
2022-11-25T02:49:00.892Z,7.35
2022-11-25T02:51:20.726Z,6.50
2022-11-25T02:53:47.988Z,6.00
2022-11-25T02:56:18.659Z,6.35
2022-11-25T02:58:45.939Z,6.30
2022-11-25T03:01:13.015Z,6.03
2022-11-25T03:03:40.420Z,6.63
2022-11-25T03:06:08.213Z,6.32
2022-11-25T03:08:36.214Z,6.13
2022-11-25T03:11:03.226Z,5.72
2022-11-25T03:13:30.262Z,6.38
2022-11-25T03:15:57.273Z,6.40
2022-11-25T03:18:24.398Z,6.00
2022-11-25T03:20:55.286Z,5.80
2022-11-25T03:23:22.693Z,6.18
2022-11-25T03:25:50.127Z,6.10
2022-11-25T03:28:17.337Z,6.10
2022-11-25T03:30:44.514Z,5.75
2022-11-25T03:33:11.606Z,5.82
2022-11-25T03:35:38.695Z,5.47
2022-11-25T03:38:05.725Z,5.40
2022-11-25T03:40:32.722Z,5.53
2022-11-25T03:42:59.724Z,5.18
2022-11-25T03:45:26.777Z,5.97
2022-11-25T03:47:53.772Z,5.72
2022-11-25T03:50:20.945Z,5.47
2022-11-25T03:52:47.972Z,5.47
2022-11-25T03:55:15.117Z,5.13
2022-11-25T03:57:42.291Z,5.53
2022-11-25T04:00:12.884Z,4.97
2022-11-25T04:02:39.961Z,5.80
2022-11-25T04:05:07.463Z,5.43
2022-11-25T04:07:34.573Z,5.40
2022-11-25T04:10:01.681Z,5.45
2022-11-25T04:12:48.594Z,5.10
2022-11-25T04:15:17.160Z,5.68
2022-11-25T04:17:44.361Z,5.18
2022-11-25T04:20:12.834Z,4.65
2022-11-25T04:22:40.044Z,4.80
2022-11-25T04:25:07.945Z,5.63
2022-11-25T04:27:34.979Z,4.90
2022-11-25T04:30:02.077Z,5.53
2022-11-25T04:32:29.209Z,4.47
2022-11-25T04:34:56.183Z,5.50
2022-11-25T04:37:23.265Z,4.70
2022-11-25T04:39:50.445Z,5.22
2022-11-25T04:42:34.541Z,5.43
2022-11-25T04:47:50.765Z,4.60
2022-11-25T04:50:21.436Z,5.43
2022-11-25T04:52:48.627Z,4.50
2022-11-25T04:55:15.830Z,4.82
2022-11-25T04:57:42.881Z,5.25
2022-11-25T05:00:10.972Z,4.45
2022-11-25T05:02:38.096Z,4.55
2022-11-25T05:05:05.770Z,4.20
2022-11-25T05:07:33.077Z,5.30
2022-11-25T05:10:00.224Z,4.50
2022-11-25T05:12:28.933Z,4.20
2022-11-25T05:14:56.993Z,4.50
2022-11-25T05:17:26.892Z,4.43
2022-11-25T05:19:53.971Z,4.00
2022-11-25T05:22:23.549Z,4.78
2022-11-25T05:24:50.595Z,4.57
2022-11-25T05:27:18.157Z,4.32
2022-11-25T05:29:45.518Z,4.30
2022-11-25T05:32:12.918Z,3.90
2022-11-25T05:34:40.332Z,4.75
2022-11-25T05:37:08.041Z,5.25
2022-11-25T05:39:35.271Z,4.65
2022-11-25T05:42:02.437Z,4.75
2022-11-25T05:44:29.530Z,4.30
2022-11-25T05:46:56.669Z,4.07
2022-11-25T05:49:23.718Z,4.20
2022-11-25T05:51:50.996Z,4.82
2022-11-25T05:54:18.102Z,4.82
2022-11-25T05:56:45.146Z,5.13
2022-11-25T05:59:12.225Z,5.32
2022-11-25T06:01:39.291Z,4.53
2022-11-25T06:04:06.645Z,4.78
2022-11-25T06:06:34.260Z,5.20
2022-11-25T06:09:01.483Z,4.93
2022-11-25T06:11:28.495Z,5.30
2022-11-25T06:13:58.213Z,5.13
2022-11-25T06:16:26.021Z,5.55
2022-11-25T06:18:53.133Z,4.90
2022-11-25T06:21:20.627Z,4.57
2022-11-25T06:23:47.980Z,5.70
2022-11-25T06:26:18.236Z,6.13
2022-11-25T06:28:45.769Z,6.35
2022-11-25T06:31:19.304Z,5.80
2022-11-25T06:33:51.067Z,5.57
2022-11-25T06:36:19.573Z,6.03
2022-11-25T06:38:52.423Z,5.50
2022-11-25T06:41:20.618Z,6.35
2022-11-25T06:43:48.077Z,6.47
2022-11-25T06:46:23.026Z,6.50
2022-11-25T06:48:53.131Z,5.72
2022-11-25T06:51:20.650Z,6.22
2022-11-25T06:53:48.663Z,7.05
2022-11-25T06:56:19.635Z,6.63
2022-11-25T06:58:48.270Z,9.30
2022-11-25T07:01:19.013Z,10.45
2022-11-25T07:03:48.057Z,7.57
2022-11-25T07:06:16.722Z,8.15
2022-11-25T07:08:44.773Z,8.88
2022-11-25T07:11:22.243Z,9.23
2022-11-25T07:13:59.992Z,8.88
2022-11-25T07:16:28.645Z,8.27
2022-11-25T07:18:56.024Z,8.43
2022-11-25T07:21:25.512Z,9.75
2022-11-25T07:23:53.685Z,8.53
2022-11-25T07:26:23.734Z,8.45
2022-11-25T07:28:52.287Z,8.05
2022-11-25T07:31:28.667Z,8.98
2022-11-25T07:34:01.699Z,9.07
2022-11-25T07:36:30.584Z,8.80
2022-11-25T07:39:00.173Z,10.43
2022-11-25T07:41:29.024Z,10.50
2022-11-25T07:44:04.619Z,9.70
2022-11-25T07:46:34.937Z,10.55
2022-11-25T07:49:06.835Z,10.05
2022-11-25T07:51:38.072Z,10.75
2022-11-25T07:54:09.054Z,10.80
2022-11-25T07:56:37.552Z,10.75
2022-11-25T07:59:08.309Z,11.75
2022-11-25T08:01:35.715Z,11.65
2022-11-25T08:04:02.743Z,11.85
2022-11-25T08:06:30.191Z,10.75
2022-11-25T08:08:58.235Z,11.45
2022-11-25T08:11:27.904Z,10.85
2022-11-25T08:13:55.706Z,11.30
2022-11-25T08:16:28.056Z,10.85
2022-11-25T08:18:55.887Z,11.43
2022-11-25T08:21:23.355Z,11.82
2022-11-25T08:23:52.685Z,11.43
2022-11-25T08:26:30.420Z,11.30
2022-11-25T08:28:58.983Z,12.20
2022-11-25T08:31:35.695Z,10.55
2022-11-25T08:34:03.431Z,10.75
2022-11-25T08:36:31.597Z,10.60
2022-11-25T08:39:01.033Z,10.00
2022-11-25T08:41:31.714Z,11.03
2022-11-25T08:44:01.021Z,10.18
2022-11-25T08:46:33.557Z,10.10
2022-11-25T08:49:01.099Z,10.25
2022-11-25T08:51:31.109Z,9.88
2022-11-25T08:53:58.849Z,10.15
2022-11-25T08:56:26.667Z,10.27
2022-11-25T08:58:55.248Z,10.48
2022-11-25T09:01:23.643Z,10.05
2022-11-25T09:03:53.311Z,9.38
2022-11-25T09:06:20.677Z,9.88
2022-11-25T09:08:48.365Z,8.80
2022-11-25T09:11:16.006Z,9.50
2022-11-25T09:13:43.218Z,8.82
2022-11-25T09:16:10.301Z,8.65
2022-11-25T09:18:38.401Z,8.88
2022-11-25T09:21:15.281Z,7.88
2022-11-25T09:23:42.321Z,8.57
2022-11-25T09:26:27.289Z,8.10
2022-11-25T09:28:55.445Z,8.40
2022-11-25T09:31:23.685Z,8.45
2022-11-25T09:33:50.893Z,8.23
2022-11-25T09:36:19.787Z,7.43
2022-11-25T09:38:46.897Z,7.95
2022-11-25T09:42:05.567Z,7.90
2022-11-25T09:45:32.345Z,7.63
2022-11-25T09:48:29.384Z,6.80
2022-11-25T09:51:25.153Z,6.70
2022-11-25T09:53:55.167Z,6.57
2022-11-25T09:56:40.224Z,6.55
2022-11-25T09:59:32.118Z,6.32
2022-11-25T10:02:03.919Z,6.30
2022-11-25T10:04:37.911Z,6.03
2022-11-25T10:07:11.411Z,6.53
2022-11-25T10:09:38.681Z,6.15
2022-11-25T10:12:28.221Z,6.82
2022-11-25T10:15:06.744Z,6.15
2022-11-25T10:17:52.060Z,6.63
2022-11-25T10:20:33.136Z,5.57
2022-11-25T10:23:11.496Z,6.03
2022-11-25T10:25:45.875Z,5.78
2022-11-25T10:28:22.940Z,5.22
2022-11-25T10:31:06.460Z,4.80
2022-11-25T10:33:50.637Z,5.35
2022-11-25T10:36:26.101Z,5.28
2022-11-25T10:39:03.097Z,5.22
2022-11-25T10:41:42.067Z,5.03
2022-11-25T10:44:28.852Z,4.65
2022-11-25T10:47:16.711Z,4.35
2022-11-25T10:50:08.902Z,4.38
2022-11-25T10:52:42.856Z,4.60
2022-11-25T10:55:14.897Z,4.18
2022-11-25T10:57:43.153Z,4.05
2022-11-25T11:00:30.578Z,4.57
2022-11-25T11:03:00.220Z,3.83
2022-11-25T11:05:30.699Z,4.80
2022-11-25T11:08:28.124Z,4.43
2022-11-25T11:11:22.548Z,4.10
2022-11-25T11:13:57.382Z,4.53
2022-11-25T11:16:36.871Z,4.53
2022-11-25T11:19:05.281Z,3.90
2022-11-25T11:21:35.955Z,4.00
2022-11-25T11:24:21.212Z,3.60
2022-11-25T11:27:03.629Z,3.30
2022-11-25T11:29:30.702Z,4.10
2022-11-25T11:32:01.853Z,3.53
2022-11-25T11:35:03.836Z,3.45
2022-11-25T11:37:42.859Z,3.25
2022-11-25T11:40:32.309Z,3.20
2022-11-25T11:43:37.397Z,3.13
2022-11-25T11:46:26.972Z,3.10
2022-11-25T11:49:15.846Z,3.45
2022-11-25T11:52:09.124Z,3.28
2022-11-25T11:54:42.646Z,3.35
2022-11-25T11:57:34.656Z,2.63
2022-11-25T12:00:09.251Z,2.90
2022-11-25T12:02:53.537Z,2.95
2022-11-25T12:05:25.135Z,2.70
2022-11-25T12:08:14.138Z,2.40
2022-11-25T12:10:54.664Z,2.88
2022-11-25T12:13:46.941Z,2.67
2022-11-25T12:16:26.016Z,2.50
2022-11-25T12:19:05.960Z,2.60
2022-11-25T12:22:06.115Z,2.70
2022-11-25T12:25:08.876Z,2.25
2022-11-25T12:27:59.349Z,2.72
2022-11-25T12:30:35.593Z,2.20
2022-11-25T12:33:22.089Z,2.35
2022-11-25T12:36:05.901Z,1.92
2022-11-25T12:38:52.167Z,2.47
2022-11-25T12:41:31.129Z,1.92
2022-11-25T12:44:06.401Z,2.20
2022-11-25T12:46:44.849Z,2.20
2022-11-25T12:49:21.796Z,2.50
2022-11-25T12:52:12.127Z,2.25
2022-11-25T12:58:01.225Z,2.13
2022-11-25T13:00:54.190Z,1.80
2022-11-25T13:03:59.468Z,2.30
2022-11-25T13:06:54.391Z,1.98
2022-11-25T13:09:50.348Z,1.80
2022-11-25T13:12:50.219Z,2.08
2022-11-25T13:15:28.309Z,2.00
2022-11-25T13:18:09.730Z,1.98
2022-11-25T13:20:44.582Z,2.05
2022-11-25T13:23:29.787Z,2.35
2022-11-25T13:26:37.179Z,1.95
2022-11-25T13:29:44.166Z,1.98
2022-11-25T13:32:34.520Z,1.77
2022-11-25T13:37:49.593Z,2.05
2022-11-25T13:40:37.356Z,2.10
2022-11-25T13:43:05.221Z,2.30
2022-11-25T13:45:39.117Z,1.98
2022-11-25T13:48:22.928Z,2.10
2022-11-25T13:53:39.988Z,2.15
2022-11-25T13:56:26.111Z,2.20
2022-11-25T13:59:19.991Z,1.98
2022-11-25T14:01:54.943Z,1.75
2022-11-25T14:04:52.411Z,1.90
2022-11-25T14:07:46.830Z,2.15
2022-11-25T14:10:38.605Z,2.10
2022-11-25T14:13:39.186Z,2.13
2022-11-25T14:16:36.469Z,1.90
2022-11-25T14:19:51.559Z,2.00
2022-11-25T14:22:51.648Z,1.80
2022-11-25T14:25:26.811Z,2.20
2022-11-25T14:28:33.562Z,1.55
2022-11-25T14:31:14.757Z,2.08
2022-11-25T14:34:07.081Z,1.30
2022-11-25T14:36:40.380Z,2.00
2022-11-25T14:39:16.385Z,1.73
2022-11-25T14:41:56.547Z,1.73
2022-11-25T14:44:29.881Z,1.83
2022-11-25T14:46:58.855Z,2.03
2022-11-25T14:50:05.172Z,2.20
2022-11-25T14:52:36.567Z,1.70
2022-11-25T14:55:06.361Z,2.22
2022-11-25T14:57:37.117Z,1.92
2022-11-25T15:00:10.342Z,1.67
2022-11-25T15:02:41.193Z,1.83
2022-11-25T15:05:21.533Z,2.50
2022-11-25T15:08:12.138Z,1.88
2022-11-25T15:11:02.443Z,1.88
2022-11-25T15:13:42.021Z,1.98
2022-11-25T15:16:18.701Z,1.65
2022-11-25T15:18:53.335Z,2.00
2022-11-25T15:21:26.720Z,1.90
2022-11-25T15:23:53.839Z,2.47
2022-11-25T15:26:24.041Z,1.80
2022-11-25T15:28:58.052Z,2.03
2022-11-25T15:31:34.388Z,2.15
2022-11-25T15:34:05.169Z,1.85
2022-11-25T15:36:32.258Z,2.05
2022-11-25T15:39:26.011Z,2.33
2022-11-25T15:41:57.070Z,1.90
2022-11-25T15:44:30.434Z,2.40
2022-11-25T15:47:05.589Z,2.05
2022-11-25T15:49:35.847Z,2.85
2022-11-25T15:52:15.478Z,1.92
2022-11-25T15:54:46.983Z,2.05
2022-11-25T15:57:22.059Z,2.17
2022-11-25T16:00:09.634Z,2.03
2022-11-25T16:02:52.684Z,1.80
2022-11-25T16:05:31.862Z,1.98
2022-11-25T16:08:02.082Z,1.63
2022-11-25T16:10:33.334Z,1.80
2022-11-25T16:13:30.666Z,2.28
2022-11-25T16:16:22.577Z,2.05
2022-11-25T16:18:57.886Z,2.00
2022-11-25T16:21:38.806Z,2.10
2022-11-25T16:24:27.160Z,1.98
2022-11-25T16:27:00.883Z,2.25
2022-11-25T16:29:35.779Z,2.08
2022-11-25T16:32:14.845Z,2.20
2022-11-25T16:34:42.863Z,2.35
2022-11-25T16:37:09.898Z,2.65
2022-11-25T16:39:38.788Z,2.17
2022-11-25T16:42:07.063Z,2.33
2022-11-25T16:44:36.032Z,2.38
2022-11-25T16:47:03.477Z,2.30
2022-11-25T16:49:31.910Z,2.67
2022-11-25T16:51:59.010Z,2.58
2022-11-25T16:54:26.653Z,2.90
2022-11-25T16:56:54.843Z,2.53
2022-11-25T16:59:35.895Z,2.85
2022-11-25T17:02:05.685Z,3.10
2022-11-25T17:04:32.842Z,2.80
2022-11-25T17:09:47.108Z,3.40
2022-11-25T17:12:22.870Z,3.03
2022-11-25T17:14:50.592Z,3.45
2022-11-25T17:17:26.383Z,3.97
2022-11-25T17:19:53.888Z,3.78
2022-11-25T17:22:24.076Z,3.70
2022-11-25T17:24:52.063Z,4.65
2022-11-25T17:27:31.311Z,4.55
2022-11-25T17:30:01.756Z,4.15
2022-11-25T17:34:56.004Z,4.57
2022-11-25T17:37:24.347Z,5.60
2022-11-25T17:39:53.691Z,5.07
2022-11-25T17:42:28.914Z,5.00
2022-11-25T17:44:56.253Z,6.07
2022-11-25T17:47:23.450Z,5.93
2022-11-25T17:49:50.577Z,6.20
2022-11-25T17:52:17.607Z,6.18
2022-11-25T17:54:47.370Z,6.35
2022-11-25T17:57:19.906Z,6.88
2022-11-25T17:59:46.954Z,6.93
2022-11-25T18:02:22.547Z,7.65
2022-11-25T18:04:50.073Z,7.60
2022-11-25T18:07:17.939Z,7.50
2022-11-25T18:09:45.617Z,7.40
2022-11-25T18:12:27.905Z,7.60
2022-11-25T18:14:56.031Z,8.10
2022-11-25T18:17:23.430Z,8.13
2022-11-25T18:19:55.048Z,8.60
2022-11-25T18:22:24.299Z,8.43
2022-11-25T18:24:52.286Z,8.98
2022-11-25T18:27:27.205Z,9.25
2022-11-25T18:29:55.792Z,9.10
2022-11-25T18:32:23.952Z,9.20
2022-11-25T18:34:52.021Z,9.40
2022-11-25T18:37:19.044Z,9.70
2022-11-25T18:39:46.732Z,9.73
2022-11-25T18:42:26.978Z,10.20
2022-11-25T18:44:55.363Z,10.98
2022-11-25T18:47:23.316Z,10.02
2022-11-25T18:49:55.532Z,10.68
2022-11-25T18:52:24.562Z,11.15
2022-11-25T18:54:51.841Z,12.02
2022-11-25T18:57:18.990Z,11.30
2022-11-25T18:59:55.945Z,11.48
2022-11-25T19:02:34.778Z,12.40
2022-11-25T19:05:02.804Z,11.93
2022-11-25T19:07:30.534Z,13.23
2022-11-25T19:09:57.715Z,12.30
2022-11-25T19:12:26.143Z,12.38
2022-11-25T19:14:53.214Z,13.23
2022-11-25T19:17:24.434Z,13.25
2022-11-25T19:19:51.478Z,11.93
2022-11-25T19:22:19.097Z,13.38
2022-11-25T19:24:46.326Z,14.48
2022-11-25T19:27:19.438Z,13.63
2022-11-25T19:29:47.624Z,13.45
2022-11-25T19:32:23.105Z,13.30
2022-11-25T19:34:57.601Z,13.27
2022-11-25T19:37:24.716Z,14.07
2022-11-25T19:39:53.514Z,14.13
2022-11-25T19:42:20.542Z,14.63
2022-11-25T19:44:47.889Z,15.02
2022-11-25T19:47:26.504Z,14.85
2022-11-25T19:49:57.037Z,14.43
2022-11-25T19:52:31.855Z,14.32
2022-11-25T19:54:59.109Z,14.02
2022-11-25T19:57:26.460Z,14.45
2022-11-25T19:59:53.509Z,14.85
2022-11-25T20:02:23.350Z,14.35
2022-11-25T20:04:55.931Z,13.77
2022-11-25T20:07:23.390Z,15.13
2022-11-25T20:09:56.180Z,15.73
2022-11-25T20:12:28.568Z,15.40
2022-11-25T20:14:55.812Z,14.98
2022-11-25T20:17:28.656Z,15.35
2022-11-25T20:19:59.728Z,14.55
2022-11-25T20:22:31.511Z,16.17
2022-11-25T20:25:00.480Z,16.70
2022-11-25T20:27:28.667Z,15.93
2022-11-25T20:29:55.953Z,15.15
2022-11-25T20:32:28.257Z,15.90
2022-11-25T20:34:59.187Z,15.85
2022-11-25T20:37:29.022Z,17.02
2022-11-25T20:40:00.074Z,15.95
2022-11-25T20:42:27.702Z,15.45
2022-11-25T20:44:57.675Z,16.80
2022-11-25T20:47:26.485Z,15.82
2022-11-25T20:49:54.081Z,17.33
2022-11-25T20:52:28.332Z,15.05
2022-11-25T20:54:55.432Z,17.33
2022-11-25T20:57:22.436Z,17.60
2022-11-25T20:59:49.519Z,17.42
2022-11-25T21:02:17.185Z,16.73
2022-11-25T21:04:44.275Z,16.33
2022-11-25T21:07:15.490Z,17.50
2022-11-25T21:09:42.947Z,16.73
2022-11-25T21:12:19.128Z,17.50
2022-11-25T21:14:47.258Z,17.05
2022-11-25T21:17:14.257Z,17.42
2022-11-25T21:19:41.613Z,18.10
2022-11-25T21:22:13.652Z,17.27
2022-11-25T21:24:42.399Z,17.90
2022-11-25T21:27:17.436Z,17.35
2022-11-25T21:29:45.860Z,17.85
2022-11-25T21:32:25.972Z,17.40
2022-11-25T21:34:55.002Z,17.85
2022-11-25T21:37:35.734Z,18.00
2022-11-25T21:40:05.514Z,17.80
2022-11-25T21:42:33.621Z,17.25
2022-11-25T21:45:00.764Z,18.08
2022-11-25T21:47:29.798Z,18.05
2022-11-25T21:49:57.672Z,18.55
2022-11-25T21:52:24.676Z,18.27
2022-11-25T21:54:52.705Z,18.02
2022-11-25T21:57:27.922Z,18.80
2022-11-25T21:59:55.034Z,18.98
2022-11-25T22:02:24.763Z,18.40
2022-11-25T22:04:52.171Z,18.38
2022-11-25T22:07:19.290Z,18.33
2022-11-25T22:09:46.477Z,17.30
2022-11-25T22:12:30.768Z,18.65
2022-11-25T22:14:59.593Z,18.27
2022-11-25T22:17:27.062Z,16.98
2022-11-25T22:19:54.543Z,18.05
2022-11-25T22:22:21.849Z,18.35
2022-11-25T22:24:48.980Z,18.88
2022-11-25T22:27:26.204Z,18.17
2022-11-25T22:29:54.473Z,18.92
2022-11-25T22:32:21.624Z,18.92
2022-11-25T22:34:48.716Z,19.40
2022-11-25T22:37:21.511Z,18.77
2022-11-25T22:39:48.930Z,19.05
2022-11-25T22:42:32.547Z,19.00
2022-11-25T22:45:02.008Z,18.13
2022-11-25T22:47:43.902Z,19.17
2022-11-25T22:50:29.312Z,18.23
2022-11-25T22:52:57.342Z,18.83
2022-11-25T22:55:31.361Z,18.90
2022-11-25T22:58:00.270Z,18.13
2022-11-25T23:00:31.258Z,18.83
2022-11-25T23:03:00.270Z,19.38
2022-11-25T23:05:32.972Z,18.27
2022-11-25T23:08:02.096Z,18.65
2022-11-25T23:10:31.694Z,18.48
2022-11-25T23:12:58.784Z,19.47
2022-11-25T23:15:26.010Z,19.02
2022-11-25T23:17:59.145Z,18.48
2022-11-25T23:20:31.249Z,18.33
2022-11-25T23:23:05.151Z,19.05
2022-11-25T23:25:32.172Z,18.60
2022-11-25T23:27:59.196Z,19.45
2022-11-25T23:30:26.189Z,18.83
2022-11-25T23:32:54.278Z,19.67
2022-11-25T23:35:35.939Z,18.50
2022-11-25T23:38:05.633Z,18.20
2022-11-25T23:40:32.956Z,18.52
2022-11-25T23:43:00.258Z,17.88
2022-11-25T23:45:27.759Z,20.15
2022-11-25T23:47:56.868Z,18.67
2022-11-25T23:50:29.120Z,17.45
2022-11-25T23:53:01.279Z,18.23
2022-11-25T23:55:34.761Z,18.95
2022-11-25T23:58:04.145Z,17.77
